Time;durP1;ratioP1;P1;durP2;ratioP2;P2;SDS_P1;SDS_P2;PMS_P1;PMS_P2;Temp;Humidity;BMP_temperature;BMP_pressure;BME280_temperature;BME280_humidity;BME280_pressure;Samples;Min_cycle;Max_cycle;Signal;HPM_P1;HPM_P2
2024/04/01 00:00:58;;;;;;;15.45;3.80;;;;;;;15.52;71.98;100102.78;5046712;28;20063;-79
2024/04/01 00:03:23;;;;;;;12.38;4.05;;;;;;;15.36;73.61;100120.59;5046804;28;20108;-79
2024/04/01 00:05:55;;;;;;;13.10;3.78;;;;;;;15.67;71.12;100126.34;5046899;28;20467;-79
2024/04/01 00:08:21;;;;;;;13.20;4.28;;;;;;;15.50;72.53;100121.03;5046050;28;20457;-79
2024/04/01 00:10:50;;;;;;;14.48;4.10;;;;;;;15.53;71.45;100099.06;5046564;28;20478;-79
2024/04/01 00:13:16;;;;;;;11.32;3.95;;;;;;;15.72;71.21;100107.63;5046995;28;20033;-79
2024/04/01 00:15:43;;;;;;;13.85;4.63;;;;;;;15.43;72.20;100093.56;5050754;28;20025;-78
2024/04/01 00:18:08;;;;;;;12.07;4.25;;;;;;;15.55;72.07;100110.38;5050118;28;20546;-79
2024/04/01 00:20:33;;;;;;;14.48;4.20;;;;;;;15.69;70.63;100097.31;5050846;28;20112;-78
2024/04/01 00:22:59;;;;;;;14.13;4.20;;;;;;;15.94;70.55;100117.56;5050347;28;20117;-79
2024/04/01 00:25:25;;;;;;;14.18;4.00;;;;;;;15.51;71.08;100084.22;5050367;28;20744;-79
2024/04/01 00:27:51;;;;;;;12.80;4.35;;;;;;;15.39;73.31;100109.34;5050381;28;20035;-79
2024/04/01 00:30:17;;;;;;;14.73;4.85;;;;;;;15.66;71.32;100098.66;5049820;28;20041;-79
2024/04/01 00:32:43;;;;;;;14.35;3.78;;;;;;;15.18;72.90;100072.53;5050203;28;20055;-79
2024/04/01 00:35:09;;;;;;;12.93;4.57;;;;;;;15.47;72.02;100097.38;5048861;28;20052;-78
2024/04/01 00:37:35;;;;;;;15.13;4.18;;;;;;;15.27;73.36;100085.28;5049920;28;20075;-79
2024/04/01 00:40:00;;;;;;;13.38;4.43;;;;;;;14.33;77.60;100059.22;5049869;28;20036;-79
2024/04/01 00:42:26;;;;;;;13.13;4.32;;;;;;;14.82;75.99;100080.13;5050346;28;20036;-79
2024/04/01 00:44:51;;;;;;;11.88;3.83;;;;;;;15.26;74.37;100113.22;5049607;28;20021;-79
2024/04/01 00:47:17;;;;;;;14.35;3.80;;;;;;;15.23;73.88;100094.09;5050388;28;20118;-78
2024/04/01 00:49:43;;;;;;;14.20;4.47;;;;;;;14.99;76.46;100109.63;5048931;28;20028;-79
2024/04/01 00:52:08;;;;;;;15.45;4.10;;;;;;;15.11;75.58;100107.63;5049255;28;20459;-78
2024/04/01 00:54:33;;;;;;;12.63;3.92;;;;;;;15.32;74.09;100102.53;5049953;28;20043;-78
2024/04/01 00:56:59;;;;;;;12.65;4.05;;;;;;;15.13;74.77;100084.03;5048293;28;20025;-79
2024/04/01 00:59:26;;;;;;;10.35;3.88;;;;;;;14.88;75.82;100068.38;5049960;28;20661;-80
2024/04/01 01:01:52;;;;;;;15.07;4.03;;;;;;;15.21;74.41;100115.84;5048316;28;20017;-79
2024/04/01 01:04:17;;;;;;;10.13;4.65;;;;;;;15.24;74.74;100115.34;5047487;28;20119;-80
2024/04/01 01:06:45;;;;;;;10.85;4.55;;;;;;;15.23;73.48;100108.34;5049161;28;20024;-80
2024/04/01 01:09:11;;;;;;;;;;;;;;;15.16;74.31;100115.78;5049879;28;20040;-79
2024/04/01 01:11:38;;;;;;;12.98;5.32;;;;;;;14.77;75.64;100106.88;5049123;28;19920;-79
2024/04/01 01:14:04;;;;;;;16.05;5.43;;;;;;;14.42;80.83;100115.94;5048254;28;20025;-79
2024/04/01 01:16:30;;;;;;;13.73;5.97;;;;;;;14.60;78.13;100096.16;5047209;28;20025;-79
2024/04/01 01:18:56;;;;;;;14.10;5.05;;;;;;;14.32;80.51;100113.91;5049051;28;20029;-80
2024/04/01 01:21:21;;;;;;;14.38;5.20;;;;;;;14.41;79.72;100111.66;5049117;28;20060;-79
2024/04/01 01:23:46;;;;;;;15.95;6.20;;;;;;;14.53;79.53;100125.00;5048015;28;20033;-79
2024/04/01 01:26:12;;;;;;;13.73;5.97;;;;;;;14.70;78.07;100117.78;5048522;28;20040;-79
2024/04/01 01:28:38;;;;;;;16.88;6.65;;;;;;;14.81;76.33;100127.63;5050667;28;20036;-79
2024/04/01 01:31:03;;;;;;;14.27;5.22;;;;;;;14.70;76.54;100114.28;5049400;28;20052;-79
2024/04/01 01:33:30;;;;;;;14.98;4.97;;;;;;;14.76;75.42;100127.53;5048927;28;20039;-79
2024/04/01 01:35:57;;;;;;;16.63;4.85;;;;;;;14.51;76.84;100119.06;5049248;28;20497;-79
2024/04/01 01:38:23;;;;;;;13.45;5.05;;;;;;;14.17;79.98;100140.47;5048788;28;20044;-80
2024/04/01 01:40:49;;;;;;;15.23;4.80;;;;;;;13.99;80.39;100118.16;5048677;28;20025;-79
2024/04/01 01:43:14;;;;;;;14.77;4.40;;;;;;;14.38;80.01;100123.66;5050500;28;20032;-79
2024/04/01 01:45:40;;;;;;;13.48;5.03;;;;;;;14.15;81.52;100123.81;5047148;28;20064;-80
2024/04/01 01:48:06;;;;;;;13.75;4.93;;;;;;;13.86;82.43;100094.34;5049000;28;20025;-79
2024/04/01 01:50:31;;;;;;;11.90;4.18;;;;;;;13.57;85.36;100129.16;5048755;28;20556;-79
2024/04/01 01:52:56;;;;;;;9.45;4.07;;;;;;;13.18;84.53;100128.84;5048698;28;20104;-78
2024/04/01 01:55:22;;;;;;;8.25;4.07;;;;;;;13.60;82.01;100126.00;5048538;28;20090;-80
2024/04/01 01:57:47;;;;;;;14.00;4.15;;;;;;;13.85;81.91;100122.19;5048598;28;20402;-79
2024/04/01 02:00:16;;;;;;;12.93;4.22;;;;;;;13.70;82.00;100108.50;5048576;28;20098;-79
2024/04/01 02:02:42;;;;;;;13.15;4.57;;;;;;;13.94;82.53;100136.84;5048986;28;20056;-80
2024/04/01 02:05:08;;;;;;;12.27;4.63;;;;;;;13.63;82.14;100146.16;5048408;28;20669;-79
2024/04/01 02:07:34;;;;;;;13.20;4.20;;;;;;;12.76;88.54;100126.28;5042327;28;20025;-81
2024/04/01 02:10:00;;;;;;;10.93;4.03;;;;;;;13.03;84.67;100104.41;5040079;28;20045;-80
2024/04/01 02:12:26;;;;;;;10.55;3.70;;;;;;;13.06;85.71;100130.72;5043550;28;20029;-79
2024/04/01 02:14:52;;;;;;;9.43;4.00;;;;;;;13.16;87.37;100132.81;5047942;28;20025;-79
2024/04/01 02:17:17;;;;;;;11.07;4.72;;;;;;;12.63;87.95;100083.69;5047851;28;20037;-79
2024/04/01 02:19:46;;;;;;;10.27;4.07;;;;;;;13.00;89.50;100137.00;5050136;28;20433;-79
2024/04/01 02:22:13;;;;;;;13.18;4.55;;;;;;;13.32;85.42;100139.31;5051113;28;20024;-78
2024/04/01 02:24:41;;;;;;;11.20;3.83;;;;;;;13.12;86.95;100135.13;5049083;28;20030;-80
2024/04/01 02:27:11;;;;;;;11.13;3.72;;;;;;;12.53;88.73;100100.31;5061727;28;20036;-79
2024/04/01 02:29:37;;;;;;;15.98;4.30;;;;;;;12.78;85.60;100105.44;5066486;28;20054;-80
2024/04/01 02:32:02;;;;;;;11.93;3.92;;;;;;;13.08;84.74;100128.63;5047982;28;20025;-79
2024/04/01 02:34:27;;;;;;;10.48;3.97;;;;;;;12.33;91.34;100119.34;5047500;28;20035;-79
2024/04/01 02:36:54;;;;;;;10.00;4.43;;;;;;;12.68;88.58;100126.63;5047871;28;20031;-80
2024/04/01 02:39:20;;;;;;;11.90;4.20;;;;;;;12.76;88.50;100118.25;5047123;28;20029;-78
2024/04/01 02:41:47;;;;;;;10.38;3.80;;;;;;;12.53;91.20;100111.03;5046602;28;20029;-79
2024/04/01 02:44:14;;;;;;;15.30;4.90;;;;;;;12.77;90.24;100101.16;5046770;28;20037;-79
2024/04/01 02:46:43;;;;;;;11.77;4.65;;;;;;;13.18;88.87;100126.16;5047706;28;20028;-79
2024/04/01 02:49:09;;;;;;;13.23;5.60;;;;;;;13.35;86.93;100122.81;5047818;28;20032;-79
2024/04/01 02:51:35;;;;;;;13.88;5.72;;;;;;;13.49;84.28;100121.50;5043324;28;20108;-79
2024/04/01 02:54:00;;;;;;;14.52;5.13;;;;;;;13.59;84.81;100123.56;5046025;28;20124;-79
2024/04/01 02:56:26;;;;;;;12.90;4.78;;;;;;;13.31;85.84;100100.22;5046199;28;20029;-79
2024/04/01 02:58:52;;;;;;;16.65;6.03;;;;;;;13.66;84.20;100135.75;5047656;28;20079;-79
2024/04/01 03:01:18;;;;;;;13.88;6.10;;;;;;;13.27;84.71;100099.84;5047397;28;20032;-79
2024/04/01 03:03:45;;;;;;;13.25;5.70;;;;;;;13.61;83.13;100133.00;5047618;28;20036;-79
2024/04/01 03:06:11;;;;;;;16.20;5.97;;;;;;;13.40;82.58;100099.63;5047357;28;20082;-79
2024/04/01 03:08:38;;;;;;;14.57;5.25;;;;;;;13.22;82.25;100075.63;5033458;28;20037;-79
2024/04/01 03:11:04;;;;;;;12.57;5.50;;;;;;;13.44;82.06;100102.63;5037876;28;20427;-80
2024/04/01 03:13:29;;;;;;;14.30;7.07;;;;;;;13.21;82.58;100090.06;5047492;28;20036;-79
2024/04/01 03:15:56;;;;;;;13.93;6.20;;;;;;;12.62;88.26;100133.69;5047491;28;20108;-80
2024/04/01 03:18:24;;;;;;;13.80;6.05;;;;;;;12.51;88.44;100117.66;5035676;28;20475;-79
2024/04/01 03:20:50;;;;;;;14.00;6.27;;;;;;;12.55;90.03;100124.19;5035107;28;20025;-79
2024/04/01 03:23:16;;;;;;;16.60;6.95;;;;;;;12.67;86.83;100095.56;5047306;28;20060;-79
2024/04/01 03:25:42;;;;;;;13.57;6.00;;;;;;;12.82;86.62;100125.34;5046995;28;20083;-79
2024/04/01 03:28:07;;;;;;;17.02;6.13;;;;;;;12.83;85.83;100124.31;5046978;28;20588;-79
2024/04/01 03:30:34;;;;;;;14.40;5.38;;;;;;;12.54;89.35;100122.53;5047290;28;20524;-80
2024/04/01 03:32:59;;;;;;;16.30;6.20;;;;;;;12.53;88.52;100112.88;5048049;28;20095;-79
2024/04/01 03:35:25;;;;;;;17.77;8.00;;;;;;;11.95;93.64;100093.78;5049267;28;20036;-80
2024/04/01 03:37:50;;;;;;;17.50;6.93;;;;;;;11.93;95.65;100111.09;5047134;28;20524;-79
2024/04/01 03:40:15;;;;;;;17.42;6.57;;;;;;;11.97;97.61;100145.16;5047226;28;20021;-80
2024/04/01 03:42:41;;;;;;;14.70;6.72;;;;;;;11.81;98.26;100111.00;5047146;28;20517;-79
2024/04/01 03:45:06;;;;;;;16.38;7.05;;;;;;;11.90;99.94;100140.94;5047194;28;20021;-78
2024/04/01 03:47:35;;;;;;;20.00;8.07;;;;;;;11.60;100.00;100122.97;5045664;28;20426;-79
2024/04/01 03:50:02;;;;;;;14.60;6.65;;;;;;;11.68;96.92;100120.00;5047939;28;20501;-79
2024/04/01 03:52:27;;;;;;;16.87;7.10;;;;;;;11.77;96.21;100128.50;5050941;28;20055;-79
2024/04/01 03:54:53;;;;;;;24.55;7.88;;;;;;;11.81;93.34;100114.50;5050330;28;20037;-79
2024/04/01 03:57:18;;;;;;;19.92;7.43;;;;;;;11.39;98.17;100113.56;5049045;28;20036;-79
2024/04/01 03:59:44;;;;;;;26.30;6.57;;;;;;;11.89;95.31;100126.78;5050392;28;20811;-79
2024/04/01 04:02:09;;;;;;;18.52;7.25;;;;;;;11.74;95.58;100103.06;5050690;28;20032;-80
2024/04/01 04:04:35;;;;;;;23.30;6.35;;;;;;;12.19;92.26;100136.63;5050720;28;20025;-80
2024/04/01 04:07:01;;;;;;;14.65;6.03;;;;;;;12.35;90.63;100130.63;5050028;28;20108;-79
2024/04/01 04:09:26;;;;;;;16.73;6.00;;;;;;;11.50;94.61;100117.34;5050636;28;20108;-80
2024/04/01 04:11:52;;;;;;;18.70;6.07;;;;;;;11.62;95.14;100143.06;5049987;28;20017;-79
2024/04/01 04:14:19;;;;;;;15.38;5.97;;;;;;;11.65;92.74;100137.31;5050438;28;20033;-79
2024/04/01 04:16:47;;;;;;;20.80;5.82;;;;;;;11.63;94.79;100166.09;5050508;28;20028;-79
2024/04/01 04:19:14;;;;;;;12.10;6.40;;;;;;;11.91;92.33;100146.06;5050309;28;20116;-79
2024/04/01 04:21:40;;;;;;;18.48;6.65;;;;;;;11.69;94.86;100158.22;5050478;28;20029;-79
2024/04/01 04:24:05;;;;;;;22.27;6.70;;;;;;;11.26;99.30;100152.72;5049742;28;20055;-79
2024/04/01 04:26:31;;;;;;;14.77;6.30;;;;;;;11.63;95.72;100160.75;5050154;28;20037;-79
2024/04/01 04:28:56;;;;;;;15.05;5.97;;;;;;;11.90;93.84;100173.00;5049881;28;20128;-79
2024/04/01 04:31:22;;;;;;;15.35;5.85;;;;;;;11.90;92.55;100157.78;5050895;28;20048;-80
2024/04/01 04:33:47;;;;;;;20.08;9.32;;;;;;;11.99;90.99;100163.63;5049865;28;20410;-80
2024/04/01 04:36:13;;;;;;;20.90;7.68;;;;;;;12.21;90.59;100171.97;5049759;28;20033;-79
2024/04/01 04:38:38;;;;;;;14.68;6.15;;;;;;;12.18;92.23;100173.25;5048427;28;20500;-79
2024/04/01 04:41:04;;;;;;;18.00;6.20;;;;;;;12.11;93.18;100155.66;5049884;28;20021;-80
2024/04/01 04:43:30;;;;;;;14.38;5.78;;;;;;;12.33;92.30;100174.69;5048713;28;20025;-79
2024/04/01 04:45:56;;;;;;;14.63;6.10;;;;;;;12.57;90.64;100175.59;5049661;28;20477;-79
2024/04/01 04:48:22;;;;;;;13.48;5.22;;;;;;;11.81;95.42;100153.75;5050225;28;20090;-79
2024/04/01 04:50:47;;;;;;;19.20;5.95;;;;;;;12.20;95.72;100186.41;5049723;28;20448;-80
2024/04/01 04:53:13;;;;;;;14.07;6.65;;;;;;;12.29;95.10;100174.34;5049774;28;20115;-79
2024/04/01 04:55:41;;;;;;;12.13;5.18;;;;;;;11.39;100.00;100175.00;5049245;28;20101;-80
2024/04/01 04:58:06;;;;;;;;;;;;;;;11.92;100.00;100182.44;5048804;28;20033;-79
2024/04/01 05:00:33;;;;;;;17.38;7.00;;;;;;;11.81;100.00;100159.94;5048577;28;19913;-80
2024/04/01 05:02:58;;;;;;;16.25;6.25;;;;;;;12.10;100.00;100176.25;5050921;28;20674;-80
2024/04/01 05:05:25;;;;;;;15.52;4.85;;;;;;;12.41;99.14;100191.22;5049291;28;20139;-80
2024/04/01 05:07:51;;;;;;;12.32;6.13;;;;;;;12.53;98.05;100167.19;5032352;28;20524;-80
2024/04/01 05:10:16;;;;;;;23.85;6.45;;;;;;;12.45;98.76;100154.16;5049515;28;20028;-80
2024/04/01 05:12:42;;;;;;;14.63;5.40;;;;;;;12.06;100.00;100154.47;5057743;28;20094;-80
2024/04/01 05:15:08;;;;;;;15.65;5.10;;;;;;;12.24;100.00;100184.91;5064119;28;20040;-80
2024/04/01 05:17:35;;;;;;;15.45;5.00;;;;;;;12.72;98.15;100178.63;5048729;28;20502;-79
2024/04/01 05:20:00;;;;;;;13.93;4.97;;;;;;;12.32;100.00;100176.56;5048908;28;20033;-80
2024/04/01 05:22:26;;;;;;;13.40;5.43;;;;;;;12.03;100.00;100164.81;5049752;28;20041;-80
2024/04/01 05:24:53;;;;;;;12.65;5.22;;;;;;;12.15;100.00;100167.53;5049225;28;20044;-80
2024/04/01 05:27:18;;;;;;;14.35;5.15;;;;;;;12.44;99.27;100177.41;5048950;28;20044;-79
2024/04/01 05:29:43;;;;;;;17.42;5.15;;;;;;;12.46;100.00;100180.69;5050198;28;20045;-80
2024/04/01 05:32:09;;;;;;;11.57;5.30;;;;;;;12.90;95.23;100195.66;5047236;28;20021;-81
2024/04/01 05:34:37;;;;;;;17.58;5.90;;;;;;;12.55;98.99;100183.03;5047135;28;20032;-79
2024/04/01 05:37:06;;;;;;;17.15;6.90;;;;;;;12.23;100.00;100191.28;5048703;28;20032;-80
2024/04/01 05:39:32;;;;;;;14.25;5.93;;;;;;;12.83;98.54;100188.53;5045097;28;20123;-80
2024/04/01 05:41:58;;;;;;;14.85;4.80;;;;;;;12.51;100.00;100173.81;5048617;28;20083;-80
2024/04/01 05:44:23;;;;;;;15.20;5.63;;;;;;;12.90;98.76;100153.63;5049986;28;20037;-79
2024/04/01 05:46:48;;;;;;;17.52;5.53;;;;;;;13.33;92.48;100173.09;5047759;28;20017;-80
2024/04/01 05:49:14;;;;;;;10.60;5.35;;;;;;;13.02;98.48;100177.75;5050213;28;20499;-80
2024/04/01 05:51:39;;;;;;;15.32;5.43;;;;;;;13.16;98.94;100178.34;5046592;28;20028;-80
2024/04/01 05:54:05;;;;;;;15.73;6.05;;;;;;;13.03;100.00;100180.16;5049976;28;20045;-80
2024/04/01 05:56:30;;;;;;;15.80;5.70;;;;;;;12.68;100.00;100150.69;5048091;28;20490;-80
2024/04/01 05:58:55;;;;;;;18.15;6.45;;;;;;;13.07;100.00;100181.34;5049177;28;20021;-80
2024/04/01 06:01:21;;;;;;;17.73;6.65;;;;;;;13.36;100.00;100173.47;5047846;28;20051;-79
2024/04/01 06:03:46;;;;;;;17.02;6.63;;;;;;;13.50;100.00;100175.88;5046394;28;20032;-80
2024/04/01 06:06:12;;;;;;;16.30;6.25;;;;;;;14.00;99.68;100189.50;5047860;28;20155;-80
2024/04/01 06:08:37;;;;;;;20.13;5.90;;;;;;;14.15;96.74;100190.84;5045282;28;20082;-80
2024/04/01 06:11:02;;;;;;;20.77;7.05;;;;;;;14.41;91.28;100190.28;5048224;28;20021;-80
2024/04/01 06:13:28;;;;;;;15.07;6.03;;;;;;;14.57;89.48;100187.91;5048186;28;20029;-81
2024/04/01 06:15:53;;;;;;;17.85;7.30;;;;;;;14.41;90.59;100165.31;5047989;28;20116;-80
2024/04/01 06:18:19;;;;;;;17.20;6.32;;;;;;;14.62;89.97;100169.19;5047152;28;20403;-80
2024/04/01 06:20:44;;;;;;;18.05;6.45;;;;;;;14.73;88.36;100186.28;5047658;28;20669;-80
2024/04/01 06:23:09;;;;;;;17.67;5.88;;;;;;;14.91;88.16;100195.97;5049557;28;20035;-80
2024/04/01 06:25:44;;;;;;;18.42;6.95;;;;;;;14.96;88.14;100169.22;5047940;28;20025;-79
2024/04/01 06:28:10;;;;;;;17.63;5.88;;;;;;;15.48;84.28;100187.66;5065762;28;20094;-80
2024/04/01 06:30:35;;;;;;;15.75;6.72;;;;;;;15.74;82.45;100177.28;5051278;28;20567;-80
2024/04/01 06:33:01;;;;;;;10.68;5.00;;;;;;;15.81;80.96;100186.81;5047922;28;20106;-80
2024/04/01 06:35:26;;;;;;;16.75;5.30;;;;;;;15.97;79.10;100187.78;5047498;28;20542;-80
2024/04/01 06:37:52;;;;;;;19.70;6.53;;;;;;;15.96;80.83;100205.00;5047410;28;20037;-79
2024/04/01 06:40:17;;;;;;;17.48;7.07;;;;;;;16.51;75.62;100213.09;5046632;28;20552;-80
2024/04/01 06:42:42;;;;;;;16.92;5.65;;;;;;;16.41;74.32;100168.88;5046517;28;20021;-80
2024/04/01 06:45:08;;;;;;;19.58;5.78;;;;;;;16.48;75.36;100209.03;5047277;28;20033;-80
2024/04/01 06:47:33;;;;;;;17.60;6.68;;;;;;;16.59;74.69;100201.84;5047890;28;20554;-80
2024/04/01 06:49:59;;;;;;;419.48;198.70;;;;;;;16.63;74.61;100179.56;5046105;28;20076;-80
2024/04/01 06:52:24;;;;;;;21.02;8.55;;;;;;;16.67;77.17;100188.75;5047555;28;20053;-80
2024/04/01 06:54:50;;;;;;;94.65;60.72;;;;;;;16.58;77.02;100211.00;5046353;28;20074;-79
2024/04/01 06:57:16;;;;;;;104.65;66.72;;;;;;;16.72;76.12;100193.38;5047192;28;20090;-80
2024/04/01 06:59:41;;;;;;;901.63;672.95;;;;;;;17.12;73.88;100178.63;5047199;28;20025;-79
2024/04/01 07:02:06;;;;;;;51.80;34.70;;;;;;;17.26;71.45;100189.75;5047697;28;21202;-80
2024/04/01 07:04:32;;;;;;;145.10;71.38;;;;;;;17.10;73.63;100169.16;5047247;28;20044;-79
2024/04/01 07:06:57;;;;;;;29.80;13.10;;;;;;;17.35;72.69;100184.69;5047792;28;20516;-81
2024/04/01 07:09:23;;;;;;;18.88;6.85;;;;;;;17.74;72.30;100193.25;5047646;28;20083;-79
2024/04/01 07:11:48;;;;;;;23.17;6.75;;;;;;;17.92;70.74;100186.59;5047729;28;20033;-80
2024/04/01 07:14:14;;;;;;;163.93;87.55;;;;;;;18.25;69.12;100206.13;5047094;28;20021;-80
2024/04/01 07:16:39;;;;;;;27.55;13.75;;;;;;;18.32;69.71;100217.47;5047399;28;20032;-80
2024/04/01 07:19:04;;;;;;;17.77;5.90;;;;;;;18.18;68.24;100210.97;5047149;28;20108;-81
2024/04/01 07:21:31;;;;;;;39.03;23.45;;;;;;;18.03;68.20;100212.53;5047957;28;20438;-79
2024/04/01 07:23:57;;;;;;;42.07;23.10;;;;;;;18.10;68.42;100204.19;5046446;28;20049;-79
2024/04/01 07:26:22;;;;;;;39.67;21.23;;;;;;;18.01;69.73;100182.31;5051361;28;20036;-79
2024/04/01 07:28:48;;;;;;;15.15;6.07;;;;;;;18.15;65.11;100196.13;5051344;28;20450;-80
2024/04/01 07:31:13;;;;;;;18.85;6.00;;;;;;;18.40;64.21;100202.66;5050693;28;20045;-81
2024/04/01 07:33:39;;;;;;;22.65;8.82;;;;;;;18.70;64.91;100212.69;5049888;28;20079;-79
2024/04/01 07:36:05;;;;;;;19.25;6.25;;;;;;;18.68;64.12;100174.31;5049983;28;20048;-81
2024/04/01 07:38:30;;;;;;;21.20;7.97;;;;;;;18.70;63.41;100184.88;5047749;28;20020;-80
2024/04/01 07:40:55;;;;;;;20.08;5.65;;;;;;;18.75;63.27;100177.56;5051131;28;20036;-79
2024/04/01 07:43:21;;;;;;;33.47;19.05;;;;;;;18.93;63.11;100199.75;5051217;28;20021;-78
2024/04/01 07:45:46;;;;;;;16.55;5.47;;;;;;;18.54;63.45;100192.16;5050918;28;20037;-80
2024/04/01 07:48:12;;;;;;;21.15;8.70;;;;;;;18.50;63.65;100175.66;5052271;28;20418;-79
2024/04/01 07:50:37;;;;;;;15.93;6.05;;;;;;;18.90;63.20;100186.75;5051007;28;20033;-78
2024/04/01 07:53:02;;;;;;;14.60;4.95;;;;;;;19.04;62.72;100191.38;5050634;28;20024;-79
2024/04/01 07:55:28;;;;;;;22.67;7.13;;;;;;;19.45;63.06;100185.03;5048968;28;20107;-79
2024/04/01 07:57:53;;;;;;;15.43;5.10;;;;;;;19.70;60.61;100188.78;5049034;28;20398;-80
2024/04/01 08:00:19;;;;;;;18.05;5.55;;;;;;;19.54;60.13;100194.22;5051118;28;20025;-79
2024/04/01 08:02:44;;;;;;;19.38;5.00;;;;;;;19.44;61.94;100189.66;5050752;28;20140;-79
2024/04/01 08:05:09;;;;;;;15.93;5.05;;;;;;;19.77;61.24;100208.25;5052938;28;20036;-79
2024/04/01 08:07:35;;;;;;;19.52;5.72;;;;;;;19.85;58.97;100188.72;5046321;28;20109;-78
2024/04/01 08:10:01;;;;;;;20.50;5.40;;;;;;;20.22;58.39;100179.31;5050675;28;20029;-79
2024/04/01 08:12:27;;;;;;;17.23;7.70;;;;;;;20.61;56.94;100173.13;5051267;28;20033;-80
2024/04/01 08:14:52;;;;;;;33.17;16.67;;;;;;;20.48;57.58;100178.06;5050561;28;20106;-80
2024/04/01 08:17:18;;;;;;;19.40;5.75;;;;;;;20.48;57.00;100179.97;5050085;28;20029;-80
2024/04/01 08:19:47;;;;;;;20.38;5.70;;;;;;;21.10;55.43;100174.06;5049938;28;20102;-79
2024/04/01 08:22:13;;;;;;;20.48;6.10;;;;;;;21.61;53.78;100187.91;5050418;28;20106;-80
2024/04/01 08:24:38;;;;;;;18.75;6.13;;;;;;;21.36;55.01;100167.28;5050184;28;20503;-80
2024/04/01 08:27:04;;;;;;;23.20;7.95;;;;;;;21.40;54.25;100167.50;5050170;28;20564;-79
2024/04/01 08:29:29;;;;;;;24.83;8.75;;;;;;;21.69;53.70;100169.38;5049351;28;20069;-80
2024/04/01 08:31:55;;;;;;;20.38;7.35;;;;;;;21.64;54.25;100157.47;5050108;28;20075;-80
2024/04/01 08:34:20;;;;;;;20.02;7.82;;;;;;;21.97;52.09;100159.50;5050223;28;20044;-80
2024/04/01 08:36:45;;;;;;;21.55;6.63;;;;;;;22.52;50.53;100153.56;5050229;28;20029;-81
2024/04/01 08:39:11;;;;;;;19.27;4.82;;;;;;;22.30;49.58;100138.69;5049977;28;20033;-80
2024/04/01 08:41:45;;;;;;;15.73;4.50;;;;;;;22.02;49.27;100135.78;5048681;28;20405;-81
2024/04/01 08:44:12;;;;;;;16.13;4.63;;;;;;;22.19;49.13;100148.03;5049706;28;20025;-80
2024/04/01 08:46:43;;;;;;;14.40;4.22;;;;;;;22.75;48.63;100163.50;5049514;28;20078;-80
2024/04/01 08:49:13;;;;;;;15.02;4.70;;;;;;;22.95;48.73;100147.94;5050402;28;20036;-80
2024/04/01 08:51:40;;;;;;;17.80;5.35;;;;;;;22.92;48.50;100162.94;5049503;28;20559;-81
2024/04/01 08:54:08;;;;;;;18.13;5.38;;;;;;;22.64;51.77;100118.56;5049824;28;20171;-80
2024/04/01 08:56:38;;;;;;;15.43;5.20;;;;;;;22.88;50.68;100142.88;5049069;28;20044;-80
2024/04/01 08:59:04;;;;;;;16.38;6.15;;;;;;;22.69;49.41;100159.25;5049359;28;20025;-80
2024/04/01 09:01:30;;;;;;;21.25;7.55;;;;;;;22.78;50.27;100143.88;5049969;28;20029;-80
2024/04/01 09:03:55;;;;;;;18.92;6.70;;;;;;;23.10;49.19;100147.69;5069820;28;20025;-81
2024/04/01 09:06:21;;;;;;;19.13;6.72;;;;;;;23.76;46.70;100147.47;5061170;28;20083;-80
2024/04/01 09:08:50;;;;;;;17.40;7.38;;;;;;;24.15;46.54;100159.72;5049426;28;20674;-82
2024/04/01 09:11:15;;;;;;;22.88;7.55;;;;;;;24.19;47.41;100145.19;5049797;28;20055;-80
2024/04/01 09:13:41;;;;;;;29.85;8.60;;;;;;;24.23;49.10;100153.53;5049830;28;20112;-79
2024/04/01 09:16:07;;;;;;;20.23;8.10;;;;;;;24.13;48.29;100162.75;5049521;28;20037;-80
2024/04/01 09:18:36;;;;;;;24.48;8.88;;;;;;;24.26;47.48;100101.16;5049155;28;20078;-80
2024/04/01 09:21:02;;;;;;;20.83;8.07;;;;;;;24.99;44.79;100142.69;5048834;28;20502;-80
2024/04/01 09:23:31;;;;;;;22.27;8.55;;;;;;;25.29;43.27;100132.06;5047971;28;20087;-81
2024/04/01 09:26:00;;;;;;;19.60;5.55;;;;;;;25.48;40.92;100148.19;5049002;28;21116;-80
2024/04/01 09:28:26;;;;;;;13.88;5.28;;;;;;;25.43;39.65;100137.41;5045319;28;20032;-80
2024/04/01 09:30:52;;;;;;;15.93;6.22;;;;;;;25.30;40.16;100141.88;5046679;28;20049;-80
2024/04/01 09:33:17;;;;;;;17.15;5.60;;;;;;;24.51;40.13;100098.94;5048921;28;20075;-81
2024/04/01 09:35:43;;;;;;;19.27;5.30;;;;;;;25.18;40.96;100087.84;5036154;28;20025;-80
2024/04/01 09:38:08;;;;;;;14.90;3.92;;;;;;;25.46;38.76;100107.56;5049075;28;20029;-82
2024/04/01 09:40:34;;;;;;;19.13;4.25;;;;;;;25.41;39.38;100096.75;5048479;28;20118;-81
2024/04/01 09:43:00;;;;;;;15.60;4.80;;;;;;;25.57;39.64;100097.13;5044101;28;20480;-80
2024/04/01 09:45:28;;;;;;;15.52;3.60;;;;;;;25.64;36.59;100089.28;5044101;28;20028;-81
2024/04/01 09:47:54;;;;;;;13.07;3.45;;;;;;;25.90;37.95;100124.03;5048716;28;20039;-80
2024/04/01 09:50:21;;;;;;;20.65;4.38;;;;;;;25.80;37.73;100097.78;5050310;28;20029;-81
2024/04/01 09:52:46;;;;;;;13.73;3.20;;;;;;;26.04;38.14;100096.56;5043969;28;20027;-80
2024/04/01 09:55:24;;;;;;;15.73;3.85;;;;;;;25.85;40.15;100091.38;5048834;28;20339;-80
2024/04/01 09:58:19;;;;;;;14.70;4.00;;;;;;;26.49;37.76;100100.84;5045568;28;20032;-80
2024/04/01 10:01:14;;;;;;;18.42;3.88;;;;;;;26.37;40.81;100085.91;5047532;28;20041;-81
2024/04/01 10:03:57;;;;;;;11.15;3.53;;;;;;;26.51;38.86;100104.06;5048675;28;20115;-80
2024/04/01 10:07:10;;;;;;;11.55;3.40;;;;;;;26.88;37.60;100097.06;5047327;28;20043;-80
2024/04/01 10:10:08;;;;;;;17.95;3.85;;;;;;;27.19;37.25;100091.28;5046463;28;20071;-81
2024/04/01 10:13:04;;;;;;;18.02;4.35;;;;;;;27.11;38.33;100072.94;5049317;28;20028;-80
2024/04/01 10:15:49;;;;;;;17.20;3.47;;;;;;;27.45;35.58;100079.41;5052331;28;20036;-81
2024/04/01 10:18:51;;;;;;;11.65;3.65;;;;;;;28.00;35.47;100072.09;5051480;28;20283;-82
2024/04/01 10:21:32;;;;;;;15.18;3.38;;;;;;;28.20;35.43;100078.69;5055738;28;20057;-81
2024/04/01 10:24:15;;;;;;;18.00;3.88;;;;;;;27.90;35.68;100042.34;5043750;28;20035;-81
2024/04/01 10:27:21;;;;;;;16.83;3.35;;;;;;;28.21;35.09;100045.44;5048573;28;20039;-81
2024/04/01 10:30:20;;;;;;;18.80;4.30;;;;;;;28.15;36.60;100056.94;5043309;28;20049;-82
2024/04/01 10:33:04;;;;;;;14.27;3.88;;;;;;;27.98;35.34;100049.69;5052396;28;20044;-80
2024/04/01 10:35:51;;;;;;;19.48;3.80;;;;;;;28.60;35.01;100037.78;5032234;28;20056;-81
2024/04/01 10:38:47;;;;;;;14.55;3.60;;;;;;;28.74;33.48;100037.44;5046147;28;20055;-82
2024/04/01 10:41:48;;;;;;;16.83;4.03;;;;;;;28.09;33.24;100039.91;5051914;28;20055;-82
2024/04/01 10:44:40;;;;;;;19.70;4.90;;;;;;;28.75;33.09;100039.06;5053645;28;20036;-79
2024/04/01 10:47:36;;;;;;;23.88;4.93;;;;;;;28.43;32.36;100027.78;5052775;28;20016;-81
2024/04/01 10:50:20;;;;;;;17.55;4.20;;;;;;;28.24;33.64;100024.78;5055200;28;20039;-79
2024/04/01 10:53:11;;;;;;;20.63;4.15;;;;;;;28.01;33.35;100005.97;5053059;28;20041;-79
2024/04/01 10:56:04;;;;;;;30.85;8.82;;;;;;;28.59;33.08;100013.44;5042434;28;20039;-79
2024/04/01 10:59:14;;;;;;;21.95;3.72;;;;;;;28.97;30.40;100012.28;5048616;28;20124;-78
2024/04/01 11:01:50;;;;;;;22.55;3.65;;;;;;;28.30;30.98;100006.97;5057613;28;20032;-79
2024/04/01 11:05:03;;;;;;;27.88;3.92;;;;;;;28.57;32.03;99974.56;5052704;28;20252;-78
2024/04/01 11:07:31;;;;;;;16.63;4.15;;;;;;;28.95;32.59;99987.13;5009853;28;20037;-80
2024/04/01 11:09:57;;;;;;;15.75;3.80;;;;;;;28.88;32.05;99989.66;5044689;28;20049;-77
2024/04/01 11:12:42;;;;;;;18.42;4.22;;;;;;;29.05;32.13;99987.47;5044523;28;20025;-78
2024/04/01 11:15:08;;;;;;;26.27;3.63;;;;;;;28.65;31.50;99955.25;5053243;28;20032;-79
2024/04/01 11:17:35;;;;;;;19.65;3.40;;;;;;;28.92;31.62;99965.88;5052239;28;20028;-78
2024/04/01 11:20:19;;;;;;;16.10;3.60;;;;;;;29.43;30.48;99979.97;5045687;28;20075;-78
2024/04/01 11:23:02;;;;;;;18.48;4.47;;;;;;;29.60;30.46;99967.88;5050972;28;20396;-77